sensor_id;sensor_type;location;lat;lon;timestamp;temperature;humidity
5901;DHT22;2976;49.764;9.796;2024-03-17T00:01:49;4.20;99.90
5901;DHT22;2976;49.764;9.796;2024-03-17T00:04:15;4.20;1.00
5901;DHT22;2976;49.764;9.796;2024-03-17T00:06:41;4.20;1.00
5901;DHT22;2976;49.764;9.796;2024-03-17T00:09:06;4.20;1.00
5901;DHT22;2976;49.764;9.796;2024-03-17T00:11:35;4.30;1.00
5901;DHT22;2976;49.764;9.796;2024-03-17T00:14:01;4.30;99.90
5901;DHT22;2976;49.764;9.796;2024-03-17T00:16:27;4.30;99.90
5901;DHT22;2976;49.764;9.796;2024-03-17T00:18:53;4.30;99.90
5901;DHT22;2976;49.764;9.796;2024-03-17T00:21:19;4.20;99.90
5901;DHT22;2976;49.764;9.796;2024-03-17T00:23:47;4.20;99.90
5901;DHT22;2976;49.764;9.796;2024-03-17T00:26:15;4.30;99.90
5901;DHT22;2976;49.764;9.796;2024-03-17T00:28:41;4.30;99.90
5901;DHT22;2976;49.764;9.796;2024-03-17T00:31:07;4.30;99.90
5901;DHT22;2976;49.764;9.796;2024-03-17T00:33:35;4.40;99.90
5901;DHT22;2976;49.764;9.796;2024-03-17T00:36:01;4.40;1.00
5901;DHT22;2976;49.764;9.796;2024-03-17T00:38:26;4.40;1.00
5901;DHT22;2976;49.764;9.796;2024-03-17T00:40:52;4.40;1.00
5901;DHT22;2976;49.764;9.796;2024-03-17T00:43:17;4.30;1.00
5901;DHT22;2976;49.764;9.796;2024-03-17T00:45:43;4.20;1.00
5901;DHT22;2976;49.764;9.796;2024-03-17T00:48:08;4.20;1.00
5901;DHT22;2976;49.764;9.796;2024-03-17T00:50:35;4.10;44.20
5901;DHT22;2976;49.764;9.796;2024-03-17T00:53:00;4.10;99.90
5901;DHT22;2976;49.764;9.796;2024-03-17T00:55:28;4.10;99.90
5901;DHT22;2976;49.764;9.796;2024-03-17T00:57:54;4.00;99.90
5901;DHT22;2976;49.764;9.796;2024-03-17T01:00:20;4.00;99.90
5901;DHT22;2976;49.764;9.796;2024-03-17T01:02:45;3.90;99.90
5901;DHT22;2976;49.764;9.796;2024-03-17T01:05:11;3.90;99.90
5901;DHT22;2976;49.764;9.796;2024-03-17T01:07:37;3.80;99.90
5901;DHT22;2976;49.764;9.796;2024-03-17T01:10:03;3.70;99.90
5901;DHT22;2976;49.764;9.796;2024-03-17T01:12:29;3.60;99.90
5901;DHT22;2976;49.764;9.796;2024-03-17T01:14:54;3.40;1.00
5901;DHT22;2976;49.764;9.796;2024-03-17T01:17:20;3.30;1.00
5901;DHT22;2976;49.764;9.796;2024-03-17T01:19:45;3.10;1.00
5901;DHT22;2976;49.764;9.796;2024-03-17T01:22:11;3.00;1.00
5901;DHT22;2976;49.764;9.796;2024-03-17T01:24:37;2.80;98.30
5901;DHT22;2976;49.764;9.796;2024-03-17T01:27:06;2.80;99.90
5901;DHT22;2976;49.764;9.796;2024-03-17T01:29:32;2.70;99.90
5901;DHT22;2976;49.764;9.796;2024-03-17T01:31:57;2.80;1.00
5901;DHT22;2976;49.764;9.796;2024-03-17T01:34:23;2.80;1.00
5901;DHT22;2976;49.764;9.796;2024-03-17T01:36:48;2.80;1.00
5901;DHT22;2976;49.764;9.796;2024-03-17T01:39:14;2.80;1.00
5901;DHT22;2976;49.764;9.796;2024-03-17T01:41:41;2.90;1.00
5901;DHT22;2976;49.764;9.796;2024-03-17T01:44:07;2.90;1.00
5901;DHT22;2976;49.764;9.796;2024-03-17T01:46:33;2.90;1.00
5901;DHT22;2976;49.764;9.796;2024-03-17T01:48:59;2.90;1.00
5901;DHT22;2976;49.764;9.796;2024-03-17T01:51:25;2.90;1.00
5901;DHT22;2976;49.764;9.796;2024-03-17T01:53:50;2.90;99.90
5901;DHT22;2976;49.764;9.796;2024-03-17T01:56:17;2.90;99.90
5901;DHT22;2976;49.764;9.796;2024-03-17T01:58:46;2.80;99.90
5901;DHT22;2976;49.764;9.796;2024-03-17T02:01:12;2.90;99.90
5901;DHT22;2976;49.764;9.796;2024-03-17T02:03:41;2.80;99.90
5901;DHT22;2976;49.764;9.796;2024-03-17T02:06:08;2.80;99.90
5901;DHT22;2976;49.764;9.796;2024-03-17T02:08:51;2.70;99.90
5901;DHT22;2976;49.764;9.796;2024-03-17T02:11:28;2.70;99.90
5901;DHT22;2976;49.764;9.796;2024-03-17T02:13:54;2.70;99.90
5901;DHT22;2976;49.764;9.796;2024-03-17T02:16:21;2.60;99.90
5901;DHT22;2976;49.764;9.796;2024-03-17T02:18:47;2.50;99.90
5901;DHT22;2976;49.764;9.796;2024-03-17T02:21:15;2.50;99.90
5901;DHT22;2976;49.764;9.796;2024-03-17T02:23:42;2.50;1.00
5901;DHT22;2976;49.764;9.796;2024-03-17T02:26:08;2.50;1.00
5901;DHT22;2976;49.764;9.796;2024-03-17T02:28:44;2.50;1.00
5901;DHT22;2976;49.764;9.796;2024-03-17T02:31:13;2.50;1.00
5901;DHT22;2976;49.764;9.796;2024-03-17T02:33:40;2.40;1.00
5901;DHT22;2976;49.764;9.796;2024-03-17T02:36:06;2.40;1.00
5901;DHT22;2976;49.764;9.796;2024-03-17T02:38:38;2.40;1.00
5901;DHT22;2976;49.764;9.796;2024-03-17T02:41:22;2.40;1.00
5901;DHT22;2976;49.764;9.796;2024-03-17T02:43:48;2.30;1.00
5901;DHT22;2976;49.764;9.796;2024-03-17T02:46:16;2.30;1.00
5901;DHT22;2976;49.764;9.796;2024-03-17T02:48:42;2.30;1.00
5901;DHT22;2976;49.764;9.796;2024-03-17T02:51:13;2.30;1.00
5901;DHT22;2976;49.764;9.796;2024-03-17T02:53:43;2.40;1.00
5901;DHT22;2976;49.764;9.796;2024-03-17T02:56:10;2.40;1.00
5901;DHT22;2976;49.764;9.796;2024-03-17T02:58:37;2.40;1.00
5901;DHT22;2976;49.764;9.796;2024-03-17T03:01:06;2.40;1.00
5901;DHT22;2976;49.764;9.796;2024-03-17T03:03:33;2.40;1.00
5901;DHT22;2976;49.764;9.796;2024-03-17T03:05:58;2.40;1.00
5901;DHT22;2976;49.764;9.796;2024-03-17T03:08:26;2.40;1.00
5901;DHT22;2976;49.764;9.796;2024-03-17T03:10:52;2.40;1.00
5901;DHT22;2976;49.764;9.796;2024-03-17T03:13:17;2.40;1.00
5901;DHT22;2976;49.764;9.796;2024-03-17T03:15:43;2.30;1.00
5901;DHT22;2976;49.764;9.796;2024-03-17T03:18:09;2.20;1.00
5901;DHT22;2976;49.764;9.796;2024-03-17T03:20:34;2.00;1.00
5901;DHT22;2976;49.764;9.796;2024-03-17T03:23:01;1.90;1.00
5901;DHT22;2976;49.764;9.796;2024-03-17T03:25:28;1.70;1.00
5901;DHT22;2976;49.764;9.796;2024-03-17T03:27:53;1.60;1.00
5901;DHT22;2976;49.764;9.796;2024-03-17T03:30:21;1.50;1.00
5901;DHT22;2976;49.764;9.796;2024-03-17T03:32:47;1.40;1.00
5901;DHT22;2976;49.764;9.796;2024-03-17T03:35:13;1.40;1.00
5901;DHT22;2976;49.764;9.796;2024-03-17T03:37:40;1.70;1.00
5901;DHT22;2976;49.764;9.796;2024-03-17T03:40:07;1.80;1.00
5901;DHT22;2976;49.764;9.796;2024-03-17T03:42:53;1.80;1.00
5901;DHT22;2976;49.764;9.796;2024-03-17T03:45:19;2.00;1.00
5901;DHT22;2976;49.764;9.796;2024-03-17T03:47:46;2.00;1.00
5901;DHT22;2976;49.764;9.796;2024-03-17T03:50:14;1.90;1.00
5901;DHT22;2976;49.764;9.796;2024-03-17T03:52:39;1.90;1.00
5901;DHT22;2976;49.764;9.796;2024-03-17T03:55:10;1.80;1.00
5901;DHT22;2976;49.764;9.796;2024-03-17T03:57:38;1.80;1.00
5901;DHT22;2976;49.764;9.796;2024-03-17T04:00:04;1.80;1.00
5901;DHT22;2976;49.764;9.796;2024-03-17T04:02:41;1.80;1.00
5901;DHT22;2976;49.764;9.796;2024-03-17T04:05:08;1.80;1.00
5901;DHT22;2976;49.764;9.796;2024-03-17T04:07:34;1.80;1.00
5901;DHT22;2976;49.764;9.796;2024-03-17T04:10:04;1.80;1.00
5901;DHT22;2976;49.764;9.796;2024-03-17T04:12:30;1.90;1.00
5901;DHT22;2976;49.764;9.796;2024-03-17T04:14:57;1.80;1.00
5901;DHT22;2976;49.764;9.796;2024-03-17T04:17:23;1.90;1.00
5901;DHT22;2976;49.764;9.796;2024-03-17T04:19:49;1.80;1.00
5901;DHT22;2976;49.764;9.796;2024-03-17T04:22:19;1.90;1.00
5901;DHT22;2976;49.764;9.796;2024-03-17T04:24:46;1.80;1.00
5901;DHT22;2976;49.764;9.796;2024-03-17T04:27:12;1.80;1.00
5901;DHT22;2976;49.764;9.796;2024-03-17T04:29:39;1.80;1.00
5901;DHT22;2976;49.764;9.796;2024-03-17T04:32:05;1.80;1.00
5901;DHT22;2976;49.764;9.796;2024-03-17T04:34:31;1.80;1.00
5901;DHT22;2976;49.764;9.796;2024-03-17T04:36:57;1.80;1.00
5901;DHT22;2976;49.764;9.796;2024-03-17T04:39:24;1.80;1.00
5901;DHT22;2976;49.764;9.796;2024-03-17T04:41:50;1.70;1.00
5901;DHT22;2976;49.764;9.796;2024-03-17T04:44:16;1.70;1.00
5901;DHT22;2976;49.764;9.796;2024-03-17T04:46:42;1.70;1.00
5901;DHT22;2976;49.764;9.796;2024-03-17T04:49:08;1.80;1.00
5901;DHT22;2976;49.764;9.796;2024-03-17T04:51:34;1.80;1.00
5901;DHT22;2976;49.764;9.796;2024-03-17T04:54:00;1.80;1.00
5901;DHT22;2976;49.764;9.796;2024-03-17T04:56:26;1.60;1.00
5901;DHT22;2976;49.764;9.796;2024-03-17T04:58:51;1.70;1.00
5901;DHT22;2976;49.764;9.796;2024-03-17T05:01:17;1.70;1.00
5901;DHT22;2976;49.764;9.796;2024-03-17T05:03:42;1.80;1.00
5901;DHT22;2976;49.764;9.796;2024-03-17T05:06:08;1.80;2.30
5901;DHT22;2976;49.764;9.796;2024-03-17T05:08:34;1.80;1.00
5901;DHT22;2976;49.764;9.796;2024-03-17T05:11:01;1.80;11.30
5901;DHT22;2976;49.764;9.796;2024-03-17T05:13:35;1.80;17.80
5901;DHT22;2976;49.764;9.796;2024-03-17T05:16:01;1.90;29.30
5901;DHT22;2976;49.764;9.796;2024-03-17T05:18:29;1.90;39.10
5901;DHT22;2976;49.764;9.796;2024-03-17T05:21:05;2.00;53.30
5901;DHT22;2976;49.764;9.796;2024-03-17T05:23:33;2.10;50.80
5901;DHT22;2976;49.764;9.796;2024-03-17T05:25:59;2.00;24.90
5901;DHT22;2976;49.764;9.796;2024-03-17T05:28:26;2.00;2.30
5901;DHT22;2976;49.764;9.796;2024-03-17T05:30:52;2.00;6.30
5901;DHT22;2976;49.764;9.796;2024-03-17T05:33:21;2.00;24.90
5901;DHT22;2976;49.764;9.796;2024-03-17T05:36:00;2.10;27.30
5901;DHT22;2976;49.764;9.796;2024-03-17T05:38:26;2.10;33.20
5901;DHT22;2976;49.764;9.796;2024-03-17T05:40:57;2.20;40.70
5901;DHT22;2976;49.764;9.796;2024-03-17T05:43:23;2.20;35.00
5901;DHT22;2976;49.764;9.796;2024-03-17T05:45:51;2.20;22.20
5901;DHT22;2976;49.764;9.796;2024-03-17T05:48:16;2.10;1.00
5901;DHT22;2976;49.764;9.796;2024-03-17T05:50:42;2.10;1.00
5901;DHT22;2976;49.764;9.796;2024-03-17T05:53:08;2.10;1.00
5901;DHT22;2976;49.764;9.796;2024-03-17T05:55:35;2.10;7.20
5901;DHT22;2976;49.764;9.796;2024-03-17T05:58:01;2.10;14.10
5901;DHT22;2976;49.764;9.796;2024-03-17T06:00:27;2.10;1.00
5901;DHT22;2976;49.764;9.796;2024-03-17T06:02:53;2.10;1.00
5901;DHT22;2976;49.764;9.796;2024-03-17T06:05:18;2.10;1.00
5901;DHT22;2976;49.764;9.796;2024-03-17T06:07:44;2.10;3.60
5901;DHT22;2976;49.764;9.796;2024-03-17T06:10:09;2.20;12.10
5901;DHT22;2976;49.764;9.796;2024-03-17T06:12:35;2.20;20.20
5901;DHT22;2976;49.764;9.796;2024-03-17T06:15:02;2.30;24.40
5901;DHT22;2976;49.764;9.796;2024-03-17T06:17:28;2.20;1.00
5901;DHT22;2976;49.764;9.796;2024-03-17T06:19:53;2.10;1.00
5901;DHT22;2976;49.764;9.796;2024-03-17T06:22:19;2.10;1.00
5901;DHT22;2976;49.764;9.796;2024-03-17T06:24:44;2.20;1.00
5901;DHT22;2976;49.764;9.796;2024-03-17T06:27:10;2.60;26.10
5901;DHT22;2976;49.764;9.796;2024-03-17T06:29:35;2.90;51.40
5901;DHT22;2976;49.764;9.796;2024-03-17T06:32:01;3.20;15.80
5901;DHT22;2976;49.764;9.796;2024-03-17T06:34:27;3.70;45.50
5901;DHT22;2976;49.764;9.796;2024-03-17T06:36:53;4.10;5.80
5901;DHT22;2976;49.764;9.796;2024-03-17T06:39:18;4.20;99.90
5901;DHT22;2976;49.764;9.796;2024-03-17T06:41:46;4.40;90.40
5901;DHT22;2976;49.764;9.796;2024-03-17T06:44:12;4.90;99.90
5901;DHT22;2976;49.764;9.796;2024-03-17T06:46:37;5.40;1.00
5901;DHT22;2976;49.764;9.796;2024-03-17T06:49:03;5.90;1.00
5901;DHT22;2976;49.764;9.796;2024-03-17T06:51:29;5.90;1.00
5901;DHT22;2976;49.764;9.796;2024-03-17T06:53:54;5.40;1.00
5901;DHT22;2976;49.764;9.796;2024-03-17T06:56:20;5.10;99.90
5901;DHT22;2976;49.764;9.796;2024-03-17T06:58:45;4.90;99.90
5901;DHT22;2976;49.764;9.796;2024-03-17T07:01:11;4.90;1.00
5901;DHT22;2976;49.764;9.796;2024-03-17T07:03:36;5.10;1.00
5901;DHT22;2976;49.764;9.796;2024-03-17T07:06:02;5.10;1.00
5901;DHT22;2976;49.764;9.796;2024-03-17T07:08:29;5.50;1.00
5901;DHT22;2976;49.764;9.796;2024-03-17T07:11:05;6.40;99.90
5901;DHT22;2976;49.764;9.796;2024-03-17T07:13:40;7.10;99.90
5901;DHT22;2976;49.764;9.796;2024-03-17T07:16:07;7.40;99.90
5901;DHT22;2976;49.764;9.796;2024-03-17T07:18:33;7.40;99.90
5901;DHT22;2976;49.764;9.796;2024-03-17T07:21:00;7.00;99.90
5901;DHT22;2976;49.764;9.796;2024-03-17T07:23:26;6.80;1.00
5901;DHT22;2976;49.764;9.796;2024-03-17T07:25:54;6.30;99.90
5901;DHT22;2976;49.764;9.796;2024-03-17T07:28:20;5.90;99.90
5901;DHT22;2976;49.764;9.796;2024-03-17T07:30:51;5.80;86.20
5901;DHT22;2976;49.764;9.796;2024-03-17T07:33:17;5.80;1.00
5901;DHT22;2976;49.764;9.796;2024-03-17T07:38:14;6.30;99.90
5901;DHT22;2976;49.764;9.796;2024-03-17T07:40:41;6.40;1.00
5901;DHT22;2976;49.764;9.796;2024-03-17T07:43:06;6.40;1.00
5901;DHT22;2976;49.764;9.796;2024-03-17T07:45:32;6.60;99.90
5901;DHT22;2976;49.764;9.796;2024-03-17T07:47:58;7.40;1.00
5901;DHT22;2976;49.764;9.796;2024-03-17T07:50:24;7.70;99.90
5901;DHT22;2976;49.764;9.796;2024-03-17T07:52:49;8.70;1.00
5901;DHT22;2976;49.764;9.796;2024-03-17T07:55:15;9.60;1.00
5901;DHT22;2976;49.764;9.796;2024-03-17T07:57:41;9.90;99.90
5901;DHT22;2976;49.764;9.796;2024-03-17T08:00:07;10.20;1.00
5901;DHT22;2976;49.764;9.796;2024-03-17T08:02:47;10.60;99.90
5901;DHT22;2976;49.764;9.796;2024-03-17T08:05:13;11.10;96.00
5901;DHT22;2976;49.764;9.796;2024-03-17T08:07:39;11.40;99.90
5901;DHT22;2976;49.764;9.796;2024-03-17T08:10:07;11.60;1.00
5901;DHT22;2976;49.764;9.796;2024-03-17T08:12:33;11.50;99.90
5901;DHT22;2976;49.764;9.796;2024-03-17T08:14:58;12.10;99.90
5901;DHT22;2976;49.764;9.796;2024-03-17T08:17:25;12.50;99.90
5901;DHT22;2976;49.764;9.796;2024-03-17T08:19:51;12.10;99.90
5901;DHT22;2976;49.764;9.796;2024-03-17T08:22:17;11.90;99.90
5901;DHT22;2976;49.764;9.796;2024-03-17T08:24:42;11.90;99.90
5901;DHT22;2976;49.764;9.796;2024-03-17T08:27:08;11.90;99.90
5901;DHT22;2976;49.764;9.796;2024-03-17T08:29:34;12.60;99.90
5901;DHT22;2976;49.764;9.796;2024-03-17T08:32:00;12.90;99.90
5901;DHT22;2976;49.764;9.796;2024-03-17T08:34:25;12.80;99.90
5901;DHT22;2976;49.764;9.796;2024-03-17T08:36:51;13.20;99.90
5901;DHT22;2976;49.764;9.796;2024-03-17T08:39:16;13.30;99.90
5901;DHT22;2976;49.764;9.796;2024-03-17T08:41:42;13.20;99.90
5901;DHT22;2976;49.764;9.796;2024-03-17T08:44:09;13.10;99.90
5901;DHT22;2976;49.764;9.796;2024-03-17T08:46:35;13.20;99.90
5901;DHT22;2976;49.764;9.796;2024-03-17T08:49:01;13.60;99.90
5901;DHT22;2976;49.764;9.796;2024-03-17T08:51:26;13.80;99.90
5901;DHT22;2976;49.764;9.796;2024-03-17T08:53:53;13.70;99.90
5901;DHT22;2976;49.764;9.796;2024-03-17T08:56:18;13.70;99.90
5901;DHT22;2976;49.764;9.796;2024-03-17T08:58:46;13.90;99.90
5901;DHT22;2976;49.764;9.796;2024-03-17T09:01:14;14.40;99.90
5901;DHT22;2976;49.764;9.796;2024-03-17T09:03:40;13.80;99.90
5901;DHT22;2976;49.764;9.796;2024-03-17T09:06:16;14.20;99.90
5901;DHT22;2976;49.764;9.796;2024-03-17T09:08:42;14.50;99.90
5901;DHT22;2976;49.764;9.796;2024-03-17T09:11:13;14.40;99.90
5901;DHT22;2976;49.764;9.796;2024-03-17T09:13:39;14.60;99.90
5901;DHT22;2976;49.764;9.796;2024-03-17T09:16:05;14.90;99.90
5901;DHT22;2976;49.764;9.796;2024-03-17T09:18:32;15.20;99.90
5901;DHT22;2976;49.764;9.796;2024-03-17T09:20:59;15.20;99.90
5901;DHT22;2976;49.764;9.796;2024-03-17T09:23:25;15.10;99.90
5901;DHT22;2976;49.764;9.796;2024-03-17T09:25:56;14.50;99.90
5901;DHT22;2976;49.764;9.796;2024-03-17T09:28:21;14.30;99.90
5901;DHT22;2976;49.764;9.796;2024-03-17T09:30:47;13.40;99.90
5901;DHT22;2976;49.764;9.796;2024-03-17T09:33:13;13.20;99.90
5901;DHT22;2976;49.764;9.796;2024-03-17T09:35:38;13.50;99.90
5901;DHT22;2976;49.764;9.796;2024-03-17T09:38:04;13.60;99.90
5901;DHT22;2976;49.764;9.796;2024-03-17T09:40:30;13.70;99.90
5901;DHT22;2976;49.764;9.796;2024-03-17T09:42:56;14.00;99.90
5901;DHT22;2976;49.764;9.796;2024-03-17T09:45:24;14.50;99.90
5901;DHT22;2976;49.764;9.796;2024-03-17T09:47:50;15.20;99.90
5901;DHT22;2976;49.764;9.796;2024-03-17T09:50:16;15.80;99.90
5901;DHT22;2976;49.764;9.796;2024-03-17T09:52:45;16.30;99.90
5901;DHT22;2976;49.764;9.796;2024-03-17T09:55:17;16.00;99.90
5901;DHT22;2976;49.764;9.796;2024-03-17T09:57:43;15.90;99.90
5901;DHT22;2976;49.764;9.796;2024-03-17T10:00:11;15.90;99.90
5901;DHT22;2976;49.764;9.796;2024-03-17T10:02:44;16.30;99.90
5901;DHT22;2976;49.764;9.796;2024-03-17T10:05:23;16.40;99.90
5901;DHT22;2976;49.764;9.796;2024-03-17T10:07:50;16.40;99.90
5901;DHT22;2976;49.764;9.796;2024-03-17T10:10:17;16.30;99.90
5901;DHT22;2976;49.764;9.796;2024-03-17T10:12:44;15.70;99.90
5901;DHT22;2976;49.764;9.796;2024-03-17T10:15:14;15.60;99.90
5901;DHT22;2976;49.764;9.796;2024-03-17T10:17:39;15.50;99.90
5901;DHT22;2976;49.764;9.796;2024-03-17T10:20:31;15.60;99.90
5901;DHT22;2976;49.764;9.796;2024-03-17T10:23:04;15.70;99.90
5901;DHT22;2976;49.764;9.796;2024-03-17T10:25:38;15.10;99.90
5901;DHT22;2976;49.764;9.796;2024-03-17T10:28:13;13.80;96.80
5901;DHT22;2976;49.764;9.796;2024-03-17T10:30:39;13.90;99.90
5901;DHT22;2976;49.764;9.796;2024-03-17T10:33:06;13.70;99.90
5901;DHT22;2976;49.764;9.796;2024-03-17T10:35:37;14.10;99.90
5901;DHT22;2976;49.764;9.796;2024-03-17T10:38:07;14.70;99.90
5901;DHT22;2976;49.764;9.796;2024-03-17T10:40:34;14.90;99.90
5901;DHT22;2976;49.764;9.796;2024-03-17T10:43:02;14.40;99.90
5901;DHT22;2976;49.764;9.796;2024-03-17T10:45:28;13.70;99.90
5901;DHT22;2976;49.764;9.796;2024-03-17T10:48:01;13.60;99.90
5901;DHT22;2976;49.764;9.796;2024-03-17T10:50:30;13.10;99.90
5901;DHT22;2976;49.764;9.796;2024-03-17T10:53:01;13.40;99.90
5901;DHT22;2976;49.764;9.796;2024-03-17T10:58:08;12.90;99.90
5901;DHT22;2976;49.764;9.796;2024-03-17T11:00:43;13.20;99.90
5901;DHT22;2976;49.764;9.796;2024-03-17T11:03:09;13.00;99.90
5901;DHT22;2976;49.764;9.796;2024-03-17T11:05:37;12.80;99.90
5901;DHT22;2976;49.764;9.796;2024-03-17T11:08:03;12.60;99.90
5901;DHT22;2976;49.764;9.796;2024-03-17T11:13:02;12.30;99.90
5901;DHT22;2976;49.764;9.796;2024-03-17T11:20:56;13.10;99.90
5901;DHT22;2976;49.764;9.796;2024-03-17T11:23:30;13.30;99.90
5901;DHT22;2976;49.764;9.796;2024-03-17T11:25:57;13.60;99.90
5901;DHT22;2976;49.764;9.796;2024-03-17T11:33:58;14.30;99.90
5901;DHT22;2976;49.764;9.796;2024-03-17T11:46:41;15.10;99.90
5901;DHT22;2976;49.764;9.796;2024-03-17T11:49:31;15.40;99.90
5901;DHT22;2976;49.764;9.796;2024-03-17T11:52:01;15.80;99.90
5901;DHT22;2976;49.764;9.796;2024-03-17T11:54:32;15.90;99.90
5901;DHT22;2976;49.764;9.796;2024-03-17T11:57:03;15.20;99.90
5901;DHT22;2976;49.764;9.796;2024-03-17T11:59:30;15.20;99.90
5901;DHT22;2976;49.764;9.796;2024-03-17T12:01:55;14.80;99.90
5901;DHT22;2976;49.764;9.796;2024-03-17T12:04:22;14.20;99.90
5901;DHT22;2976;49.764;9.796;2024-03-17T12:06:50;13.60;99.90
5901;DHT22;2976;49.764;9.796;2024-03-17T12:09:28;13.10;99.90
5901;DHT22;2976;49.764;9.796;2024-03-17T12:12:11;12.70;99.90
5901;DHT22;2976;49.764;9.796;2024-03-17T12:14:37;12.40;99.90
5901;DHT22;2976;49.764;9.796;2024-03-17T12:17:04;12.50;99.90
5901;DHT22;2976;49.764;9.796;2024-03-17T12:19:30;12.50;99.90
5901;DHT22;2976;49.764;9.796;2024-03-17T12:21:57;12.40;99.90
5901;DHT22;2976;49.764;9.796;2024-03-17T12:24:27;12.40;99.90
5901;DHT22;2976;49.764;9.796;2024-03-17T12:26:55;12.20;99.90
5901;DHT22;2976;49.764;9.796;2024-03-17T12:29:31;12.50;99.90
5901;DHT22;2976;49.764;9.796;2024-03-17T12:32:07;12.80;99.90
5901;DHT22;2976;49.764;9.796;2024-03-17T12:34:37;12.80;99.90
5901;DHT22;2976;49.764;9.796;2024-03-17T12:37:03;12.60;99.90
5901;DHT22;2976;49.764;9.796;2024-03-17T12:39:33;12.50;99.90
5901;DHT22;2976;49.764;9.796;2024-03-17T12:42:12;12.60;99.90
5901;DHT22;2976;49.764;9.796;2024-03-17T12:44:56;12.80;99.90
5901;DHT22;2976;49.764;9.796;2024-03-17T12:47:27;12.90;99.90
5901;DHT22;2976;49.764;9.796;2024-03-17T12:49:57;13.00;99.90
5901;DHT22;2976;49.764;9.796;2024-03-17T12:52:25;13.20;99.90
5901;DHT22;2976;49.764;9.796;2024-03-17T12:55:01;13.20;99.90
5901;DHT22;2976;49.764;9.796;2024-03-17T12:57:47;13.50;99.90
5901;DHT22;2976;49.764;9.796;2024-03-17T13:00:31;13.50;99.90
5901;DHT22;2976;49.764;9.796;2024-03-17T13:02:58;13.50;99.90
5901;DHT22;2976;49.764;9.796;2024-03-17T13:05:24;13.30;99.90
5901;DHT22;2976;49.764;9.796;2024-03-17T13:07:50;13.60;99.90
5901;DHT22;2976;49.764;9.796;2024-03-17T13:10:17;13.90;99.90
5901;DHT22;2976;49.764;9.796;2024-03-17T13:12:44;13.90;99.90
5901;DHT22;2976;49.764;9.796;2024-03-17T13:15:15;14.00;99.90
5901;DHT22;2976;49.764;9.796;2024-03-17T13:17:42;13.90;99.90
5901;DHT22;2976;49.764;9.796;2024-03-17T13:20:14;13.50;99.90
5901;DHT22;2976;49.764;9.796;2024-03-17T13:22:45;13.40;99.90
5901;DHT22;2976;49.764;9.796;2024-03-17T13:25:15;13.40;99.90
5901;DHT22;2976;49.764;9.796;2024-03-17T13:27:42;13.50;99.90
5901;DHT22;2976;49.764;9.796;2024-03-17T13:30:08;13.80;99.90
5901;DHT22;2976;49.764;9.796;2024-03-17T13:32:35;14.30;99.90
5901;DHT22;2976;49.764;9.796;2024-03-17T13:35:01;14.20;99.90
5901;DHT22;2976;49.764;9.796;2024-03-17T13:37:27;13.80;99.90
5901;DHT22;2976;49.764;9.796;2024-03-17T13:39:53;13.60;99.90
5901;DHT22;2976;49.764;9.796;2024-03-17T13:42:18;13.20;99.90
5901;DHT22;2976;49.764;9.796;2024-03-17T13:44:45;13.10;99.90
5901;DHT22;2976;49.764;9.796;2024-03-17T13:47:12;13.00;99.90
5901;DHT22;2976;49.764;9.796;2024-03-17T13:49:39;12.90;99.90
5901;DHT22;2976;49.764;9.796;2024-03-17T13:52:05;13.00;99.90
5901;DHT22;2976;49.764;9.796;2024-03-17T13:54:30;13.30;99.90
5901;DHT22;2976;49.764;9.796;2024-03-17T13:56:57;13.50;99.90
5901;DHT22;2976;49.764;9.796;2024-03-17T13:59:24;13.80;99.90
5901;DHT22;2976;49.764;9.796;2024-03-17T14:01:52;14.00;99.90
5901;DHT22;2976;49.764;9.796;2024-03-17T14:04:18;14.20;99.90
5901;DHT22;2976;49.764;9.796;2024-03-17T14:06:45;14.30;99.90
5901;DHT22;2976;49.764;9.796;2024-03-17T14:09:17;14.40;99.90
5901;DHT22;2976;49.764;9.796;2024-03-17T14:11:46;14.50;99.90
5901;DHT22;2976;49.764;9.796;2024-03-17T14:14:12;14.40;99.90
5901;DHT22;2976;49.764;9.796;2024-03-17T14:16:38;14.30;99.90
5901;DHT22;2976;49.764;9.796;2024-03-17T14:19:04;14.40;99.90
5901;DHT22;2976;49.764;9.796;2024-03-17T14:21:30;14.40;99.90
5901;DHT22;2976;49.764;9.796;2024-03-17T14:23:55;14.60;99.90
5901;DHT22;2976;49.764;9.796;2024-03-17T14:26:22;14.40;99.90
5901;DHT22;2976;49.764;9.796;2024-03-17T14:28:48;14.50;99.90
5901;DHT22;2976;49.764;9.796;2024-03-17T14:31:18;14.20;99.90
5901;DHT22;2976;49.764;9.796;2024-03-17T14:33:44;14.40;99.90
5901;DHT22;2976;49.764;9.796;2024-03-17T14:36:10;14.60;99.90
5901;DHT22;2976;49.764;9.796;2024-03-17T14:38:36;14.70;99.90
5901;DHT22;2976;49.764;9.796;2024-03-17T14:41:02;14.60;99.90
5901;DHT22;2976;49.764;9.796;2024-03-17T14:43:30;14.10;99.90
5901;DHT22;2976;49.764;9.796;2024-03-17T14:45:55;14.20;99.90
5901;DHT22;2976;49.764;9.796;2024-03-17T14:48:21;14.30;99.90
5901;DHT22;2976;49.764;9.796;2024-03-17T14:50:47;14.30;99.90
5901;DHT22;2976;49.764;9.796;2024-03-17T14:53:12;14.40;99.90
5901;DHT22;2976;49.764;9.796;2024-03-17T14:55:38;14.40;99.90
5901;DHT22;2976;49.764;9.796;2024-03-17T14:58:04;14.50;99.90
5901;DHT22;2976;49.764;9.796;2024-03-17T15:00:32;14.60;99.90
5901;DHT22;2976;49.764;9.796;2024-03-17T15:02:57;14.70;99.90
5901;DHT22;2976;49.764;9.796;2024-03-17T15:05:23;14.80;99.90
5901;DHT22;2976;49.764;9.796;2024-03-17T15:07:50;14.80;99.90
5901;DHT22;2976;49.764;9.796;2024-03-17T15:10:16;14.80;99.90
5901;DHT22;2976;49.764;9.796;2024-03-17T15:12:48;14.80;99.90
5901;DHT22;2976;49.764;9.796;2024-03-17T15:15:14;14.70;99.90
5901;DHT22;2976;49.764;9.796;2024-03-17T15:17:39;14.70;99.90
5901;DHT22;2976;49.764;9.796;2024-03-17T15:20:06;14.50;99.90
5901;DHT22;2976;49.764;9.796;2024-03-17T15:22:42;14.50;99.90
5901;DHT22;2976;49.764;9.796;2024-03-17T15:25:09;14.40;99.90
5901;DHT22;2976;49.764;9.796;2024-03-17T15:27:34;14.20;99.90
5901;DHT22;2976;49.764;9.796;2024-03-17T15:30:00;13.90;99.90
5901;DHT22;2976;49.764;9.796;2024-03-17T15:32:26;13.60;99.90
5901;DHT22;2976;49.764;9.796;2024-03-17T15:34:51;13.40;99.90
5901;DHT22;2976;49.764;9.796;2024-03-17T15:37:17;13.30;99.90
5901;DHT22;2976;49.764;9.796;2024-03-17T15:39:43;13.10;99.90
5901;DHT22;2976;49.764;9.796;2024-03-17T15:42:09;13.10;99.90
5901;DHT22;2976;49.764;9.796;2024-03-17T15:44:38;13.20;99.90
5901;DHT22;2976;49.764;9.796;2024-03-17T15:47:04;13.20;99.90
5901;DHT22;2976;49.764;9.796;2024-03-17T15:49:31;13.20;99.90
5901;DHT22;2976;49.764;9.796;2024-03-17T15:51:56;13.20;99.90
5901;DHT22;2976;49.764;9.796;2024-03-17T15:54:23;13.30;99.90
5901;DHT22;2976;49.764;9.796;2024-03-17T15:56:48;13.20;99.90
5901;DHT22;2976;49.764;9.796;2024-03-17T15:59:14;13.20;99.90
5901;DHT22;2976;49.764;9.796;2024-03-17T16:01:40;13.10;99.90
5901;DHT22;2976;49.764;9.796;2024-03-17T16:04:06;13.00;99.90
5901;DHT22;2976;49.764;9.796;2024-03-17T16:06:31;13.00;99.90
5901;DHT22;2976;49.764;9.796;2024-03-17T16:08:59;13.00;99.90
5901;DHT22;2976;49.764;9.796;2024-03-17T16:11:27;12.90;99.90
5901;DHT22;2976;49.764;9.796;2024-03-17T16:13:58;12.80;99.90
5901;DHT22;2976;49.764;9.796;2024-03-17T16:16:24;12.70;99.90
5901;DHT22;2976;49.764;9.796;2024-03-17T16:18:55;12.60;99.90
5901;DHT22;2976;49.764;9.796;2024-03-17T16:21:22;12.60;99.90
5901;DHT22;2976;49.764;9.796;2024-03-17T16:24:06;12.50;99.90
5901;DHT22;2976;49.764;9.796;2024-03-17T16:26:33;12.50;99.90
5901;DHT22;2976;49.764;9.796;2024-03-17T16:29:01;12.40;99.90
5901;DHT22;2976;49.764;9.796;2024-03-17T16:31:28;12.40;99.90
5901;DHT22;2976;49.764;9.796;2024-03-17T16:33:53;12.40;99.90
5901;DHT22;2976;49.764;9.796;2024-03-17T16:36:21;12.30;99.90
5901;DHT22;2976;49.764;9.796;2024-03-17T16:38:47;12.30;99.90
5901;DHT22;2976;49.764;9.796;2024-03-17T16:41:13;12.30;99.90
5901;DHT22;2976;49.764;9.796;2024-03-17T16:43:41;12.10;99.90
5901;DHT22;2976;49.764;9.796;2024-03-17T16:49:24;11.80;99.90